sensor_id;sensor_type;location;lat;lon;timestamp;pressure;altitude;pressure_sealevel;temperature;humidity
78673;BME280;67988;60.086;30.354;2023-04-01T00:01:25;100330.28;;;-0.15;76.89
78673;BME280;67988;60.086;30.354;2023-04-01T00:03:52;100320.28;;;-0.05;76.74
78673;BME280;67988;60.086;30.354;2023-04-01T00:06:20;100325.38;;;-0.22;76.95
78673;BME280;67988;60.086;30.354;2023-04-01T00:08:47;100322.13;;;-0.29;77.12
78673;BME280;67988;60.086;30.354;2023-04-01T00:11:14;100275.38;;;-0.36;76.76
78673;BME280;67988;60.086;30.354;2023-04-01T00:13:43;100325.09;;;-0.16;77.09
78673;BME280;67988;60.086;30.354;2023-04-01T00:16:10;100327.22;;;-0.26;77.14
78673;BME280;67988;60.086;30.354;2023-04-01T00:18:37;100296.66;;;-0.46;77.01
78673;BME280;67988;60.086;30.354;2023-04-01T00:21:05;100322.81;;;-0.24;77.03
78673;BME280;67988;60.086;30.354;2023-04-01T00:23:32;100325.78;;;-0.11;76.99
78673;BME280;67988;60.086;30.354;2023-04-01T00:25:59;100326.94;;;-0.18;76.90
78673;BME280;67988;60.086;30.354;2023-04-01T00:28:29;100305.97;;;-0.17;76.91
78673;BME280;67988;60.086;30.354;2023-04-01T00:30:58;100326.19;;;0.00;76.62
78673;BME280;67988;60.086;30.354;2023-04-01T00:33:25;100327.22;;;-0.04;76.75
78673;BME280;67988;60.086;30.354;2023-04-01T00:35:53;100305.81;;;-0.14;76.55
78673;BME280;67988;60.086;30.354;2023-04-01T00:38:20;100308.59;;;-0.17;76.78
78673;BME280;67988;60.086;30.354;2023-04-01T00:40:47;100333.00;;;0.04;76.43
78673;BME280;67988;60.086;30.354;2023-04-01T00:43:16;100334.31;;;0.14;76.24
78673;BME280;67988;60.086;30.354;2023-04-01T00:45:46;100313.69;;;0.07;76.44
78673;BME280;67988;60.086;30.354;2023-04-01T00:48:17;100323.00;;;0.14;76.42
78673;BME280;67988;60.086;30.354;2023-04-01T00:50:48;100309.66;;;-0.01;76.54
78673;BME280;67988;60.086;30.354;2023-04-01T00:53:18;100319.44;;;0.16;76.37
78673;BME280;67988;60.086;30.354;2023-04-01T00:55:50;100321.50;;;0.08;76.21
78673;BME280;67988;60.086;30.354;2023-04-01T00:58:20;100320.19;;;0.18;76.36
78673;BME280;67988;60.086;30.354;2023-04-01T01:00:50;100329.03;;;0.16;76.33
78673;BME280;67988;60.086;30.354;2023-04-01T01:03:19;100321.69;;;0.04;76.78
78673;BME280;67988;60.086;30.354;2023-04-01T01:09:12;100311.81;;;0.10;76.45
78673;BME280;67988;60.086;30.354;2023-04-01T01:11:43;100314.94;;;-0.02;76.63
78673;BME280;67988;60.086;30.354;2023-04-01T01:14:24;100325.00;;;0.07;76.49
78673;BME280;67988;60.086;30.354;2023-04-01T01:16:58;100323.91;;;0.13;76.46
78673;BME280;67988;60.086;30.354;2023-04-01T01:19:55;100314.97;;;0.18;76.48
78673;BME280;67988;60.086;30.354;2023-04-01T01:22:38;100321.25;;;0.14;76.17
78673;BME280;67988;60.086;30.354;2023-04-01T01:25:23;100319.72;;;0.09;76.39
78673;BME280;67988;60.086;30.354;2023-04-01T01:27:58;100324.06;;;0.10;76.47
78673;BME280;67988;60.086;30.354;2023-04-01T01:30:38;100283.59;;;-0.24;76.61
78673;BME280;67988;60.086;30.354;2023-04-01T01:33:31;100320.13;;;-0.01;76.78
78673;BME280;67988;60.086;30.354;2023-04-01T01:36:06;100321.78;;;0.00;76.65
78673;BME280;67988;60.086;30.354;2023-04-01T01:38:36;100312.72;;;-0.11;76.51
78673;BME280;67988;60.086;30.354;2023-04-01T01:41:04;100319.03;;;-0.17;76.55
78673;BME280;67988;60.086;30.354;2023-04-01T01:43:35;100310.09;;;-0.11;76.50
78673;BME280;67988;60.086;30.354;2023-04-01T01:46:06;100309.25;;;-0.12;76.46
78673;BME280;67988;60.086;30.354;2023-04-01T01:48:36;100285.50;;;-0.27;76.48
78673;BME280;67988;60.086;30.354;2023-04-01T01:51:06;100326.69;;;-0.12;76.57
78673;BME280;67988;60.086;30.354;2023-04-01T01:53:33;100300.66;;;-0.15;76.45
78673;BME280;67988;60.086;30.354;2023-04-01T01:56:01;100316.22;;;-0.12;76.31
78673;BME280;67988;60.086;30.354;2023-04-01T01:58:33;100307.28;;;-0.07;76.57
78673;BME280;67988;60.086;30.354;2023-04-01T02:01:10;100319.97;;;0.03;76.07
78673;BME280;67988;60.086;30.354;2023-04-01T02:03:40;100314.81;;;0.01;75.99
78673;BME280;67988;60.086;30.354;2023-04-01T02:06:11;100316.69;;;-0.03;76.04
78673;BME280;67988;60.086;30.354;2023-04-01T02:08:42;100319.13;;;0.02;76.16
78673;BME280;67988;60.086;30.354;2023-04-01T02:11:12;100313.44;;;-0.08;76.21
78673;BME280;67988;60.086;30.354;2023-04-01T02:13:45;100326.97;;;0.02;76.11
78673;BME280;67988;60.086;30.354;2023-04-01T02:16:17;100274.66;;;-0.40;75.85
78673;BME280;67988;60.086;30.354;2023-04-01T02:18:48;100317.00;;;-0.10;76.12
78673;BME280;67988;60.086;30.354;2023-04-01T02:21:20;100329.66;;;-0.21;76.27
78673;BME280;67988;60.086;30.354;2023-04-01T02:23:49;100311.69;;;-0.29;76.53
78673;BME280;67988;60.086;30.354;2023-04-01T02:26:19;100329.66;;;-0.21;76.28
78673;BME280;67988;60.086;30.354;2023-04-01T02:28:48;100327.03;;;-0.21;76.22
78673;BME280;67988;60.086;30.354;2023-04-01T02:31:16;100328.88;;;-0.23;76.01
78673;BME280;67988;60.086;30.354;2023-04-01T02:33:44;100319.03;;;-0.17;76.19
78673;BME280;67988;60.086;30.354;2023-04-01T02:36:13;100331.56;;;-0.25;75.91
78673;BME280;67988;60.086;30.354;2023-04-01T02:38:43;100332.66;;;-0.30;76.15
78673;BME280;67988;60.086;30.354;2023-04-01T02:41:11;100327.97;;;-0.22;76.08
78673;BME280;67988;60.086;30.354;2023-04-01T02:43:38;100328.69;;;-0.19;76.07
78673;BME280;67988;60.086;30.354;2023-04-01T02:46:06;100323.91;;;-0.29;75.89
78673;BME280;67988;60.086;30.354;2023-04-01T02:48:33;100319.03;;;-0.38;76.13
78673;BME280;67988;60.086;30.354;2023-04-01T02:51:00;100325.03;;;-0.36;76.22
78673;BME280;67988;60.086;30.354;2023-04-01T02:53:27;100321.28;;;-0.51;76.62
78673;BME280;67988;60.086;30.354;2023-04-01T02:55:55;100321.72;;;-0.40;76.88
78673;BME280;67988;60.086;30.354;2023-04-01T02:58:22;100324.13;;;-0.35;76.64
78673;BME280;67988;60.086;30.354;2023-04-01T03:00:49;100326.50;;;-0.29;76.51
78673;BME280;67988;60.086;30.354;2023-04-01T03:03:16;100321.72;;;-0.40;76.81
78673;BME280;67988;60.086;30.354;2023-04-01T03:05:43;100328.06;;;-0.47;77.04
78673;BME280;67988;60.086;30.354;2023-04-01T03:08:10;100326.38;;;-0.48;77.31
78673;BME280;67988;60.086;30.354;2023-04-01T03:10:38;100323.53;;;-0.42;77.13
78673;BME280;67988;60.086;30.354;2023-04-01T03:13:06;100318.91;;;-0.35;76.86
78673;BME280;67988;60.086;30.354;2023-04-01T03:15:33;100332.66;;;-0.30;77.03
78673;BME280;67988;60.086;30.354;2023-04-01T03:18:00;100336.25;;;-0.33;76.92
78673;BME280;67988;60.086;30.354;2023-04-01T03:20:28;100335.31;;;-0.32;76.88
78673;BME280;67988;60.086;30.354;2023-04-01T03:22:55;100338.59;;;-0.27;76.90
78673;BME280;67988;60.086;30.354;2023-04-01T03:25:22;100335.41;;;-0.33;76.83
78673;BME280;67988;60.086;30.354;2023-04-01T03:27:50;100339.69;;;-0.32;77.07
78673;BME280;67988;60.086;30.354;2023-04-01T03:30:18;100343.81;;;-0.27;76.84
78673;BME280;67988;60.086;30.354;2023-04-01T03:32:49;100338.78;;;-0.31;77.04
78673;BME280;67988;60.086;30.354;2023-04-01T03:35:16;100337.06;;;-0.32;76.99
78673;BME280;67988;60.086;30.354;2023-04-01T03:37:44;100345.94;;;-0.36;77.25
78673;BME280;67988;60.086;30.354;2023-04-01T03:40:12;100346.13;;;-0.41;77.40
78673;BME280;67988;60.086;30.354;2023-04-01T03:42:38;100346.13;;;-0.41;77.42
78673;BME280;67988;60.086;30.354;2023-04-01T03:45:06;100349.38;;;-0.34;76.97
78673;BME280;67988;60.086;30.354;2023-04-01T03:47:34;100347.09;;;-0.44;77.21
78673;BME280;67988;60.086;30.354;2023-04-01T03:50:02;100353.41;;;-0.49;77.54
78673;BME280;67988;60.086;30.354;2023-04-01T03:52:28;100351.41;;;-0.43;77.38
78673;BME280;67988;60.086;30.354;2023-04-01T03:54:55;100352.22;;;-0.40;77.37
78673;BME280;67988;60.086;30.354;2023-04-01T03:57:23;100353.94;;;-0.39;77.29
78673;BME280;67988;60.086;30.354;2023-04-01T03:59:50;100361.16;;;-0.46;77.23
78673;BME280;67988;60.086;30.354;2023-04-01T04:02:17;100355.47;;;-0.57;77.62
78673;BME280;67988;60.086;30.354;2023-04-01T04:04:46;100352.41;;;-0.45;77.44
78673;BME280;67988;60.086;30.354;2023-04-01T04:07:13;100357.31;;;-0.37;77.17
78673;BME280;67988;60.086;30.354;2023-04-01T04:09:58;100350.66;;;-0.45;77.25
78673;BME280;67988;60.086;30.354;2023-04-01T04:12:25;100353.25;;;-0.45;77.45
78673;BME280;67988;60.086;30.354;2023-04-01T04:14:53;100352.03;;;-0.36;77.45
78673;BME280;67988;60.086;30.354;2023-04-01T04:17:20;100360.69;;;-0.34;77.26
78673;BME280;67988;60.086;30.354;2023-04-01T04:19:49;100351.38;;;-0.41;77.52
78673;BME280;67988;60.086;30.354;2023-04-01T04:22:16;100357.97;;;-0.54;77.50
78673;BME280;67988;60.086;30.354;2023-04-01T04:24:43;100360.09;;;-0.42;77.37
78673;BME280;67988;60.086;30.354;2023-04-01T04:27:12;100351.00;;;-0.32;77.03
78673;BME280;67988;60.086;30.354;2023-04-01T04:30:07;100357.41;;;-0.39;77.04
78673;BME280;67988;60.086;30.354;2023-04-01T04:32:35;100360.53;;;-0.31;76.66
78673;BME280;67988;60.086;30.354;2023-04-01T04:35:05;100360.38;;;-0.26;76.41
78673;BME280;67988;60.086;30.354;2023-04-01T04:37:33;100322.91;;;-0.49;76.69
78673;BME280;67988;60.086;30.354;2023-04-01T04:40:00;100352.59;;;-0.28;76.56
78673;BME280;67988;60.086;30.354;2023-04-01T04:42:29;100360.44;;;-0.28;76.64
78673;BME280;67988;60.086;30.354;2023-04-01T04:45:01;100353.56;;;-0.30;76.61
78673;BME280;67988;60.086;30.354;2023-04-01T04:47:29;100360.75;;;-0.14;76.37
78673;BME280;67988;60.086;30.354;2023-04-01T04:49:56;100365.06;;;-0.34;76.60
78673;BME280;67988;60.086;30.354;2023-04-01T04:52:24;100371.34;;;-0.17;76.31
78673;BME280;67988;60.086;30.354;2023-04-01T04:54:51;100365.25;;;-0.17;76.11
78673;BME280;67988;60.086;30.354;2023-04-01T04:57:18;100369.25;;;-0.30;76.34
78673;BME280;67988;60.086;30.354;2023-04-01T04:59:52;100368.72;;;-0.17;76.24
78673;BME280;67988;60.086;30.354;2023-04-01T05:02:42;100374.66;;;-0.13;75.94
78673;BME280;67988;60.086;30.354;2023-04-01T05:05:09;100366.69;;;-0.10;75.88
78673;BME280;67988;60.086;30.354;2023-04-01T05:07:37;100366.78;;;-0.12;75.59
78673;BME280;67988;60.086;30.354;2023-04-01T05:10:05;100367.13;;;-0.21;75.79
78673;BME280;67988;60.086;30.354;2023-04-01T05:12:32;100359.16;;;-0.18;75.81
78673;BME280;67988;60.086;30.354;2023-04-01T05:15:03;100360.31;;;-0.25;75.76
78673;BME280;67988;60.086;30.354;2023-04-01T05:17:30;100372.16;;;-0.16;75.82
78673;BME280;67988;60.086;30.354;2023-04-01T05:19:58;100359.88;;;-0.14;75.66
78673;BME280;67988;60.086;30.354;2023-04-01T05:22:25;100371.06;;;-0.11;75.74
78673;BME280;67988;60.086;30.354;2023-04-01T05:24:54;100375.16;;;-0.04;75.70
78673;BME280;67988;60.086;30.354;2023-04-01T05:27:21;100379.84;;;0.10;75.27
78673;BME280;67988;60.086;30.354;2023-04-01T05:29:48;100372.03;;;0.30;74.71
78673;BME280;67988;60.086;30.354;2023-04-01T05:32:35;100368.28;;;0.16;74.67
78673;BME280;67988;60.086;30.354;2023-04-01T05:35:02;100373.13;;;0.25;74.84
78673;BME280;67988;60.086;30.354;2023-04-01T05:37:29;100365.06;;;0.29;74.23
78673;BME280;67988;60.086;30.354;2023-04-01T05:39:58;100373.03;;;0.48;73.87
78673;BME280;67988;60.086;30.354;2023-04-01T05:42:25;100368.56;;;0.50;73.78
78673;BME280;67988;60.086;30.354;2023-04-01T05:44:52;100376.94;;;0.58;73.26
78673;BME280;67988;60.086;30.354;2023-04-01T05:47:48;100375.13;;;0.80;73.03
78673;BME280;67988;60.086;30.354;2023-04-01T05:50:17;100370.97;;;0.55;72.85
78673;BME280;67988;60.086;30.354;2023-04-01T05:52:44;100369.16;;;0.36;73.59
78673;BME280;67988;60.086;30.354;2023-04-01T05:55:13;100367.59;;;0.53;73.42
78673;BME280;67988;60.086;30.354;2023-04-01T05:57:40;100378.31;;;0.47;73.68
78673;BME280;67988;60.086;30.354;2023-04-01T06:00:08;100367.69;;;0.50;73.34
78673;BME280;67988;60.086;30.354;2023-04-01T06:02:38;100366.72;;;0.72;72.66
78673;BME280;67988;60.086;30.354;2023-04-01T06:05:11;100386.09;;;1.09;71.88
78673;BME280;67988;60.086;30.354;2023-04-01T06:07:39;100374.66;;;1.10;71.48
78673;BME280;67988;60.086;30.354;2023-04-01T06:10:13;100376.31;;;1.12;71.61
78673;BME280;67988;60.086;30.354;2023-04-01T06:12:57;100386.16;;;1.07;71.51
78673;BME280;67988;60.086;30.354;2023-04-01T06:15:36;100368.88;;;1.03;71.80
78673;BME280;67988;60.086;30.354;2023-04-01T06:21:32;100379.31;;;1.23;71.10
78673;BME280;67988;60.086;30.354;2023-04-01T06:24:14;100382.47;;;1.11;70.90
78673;BME280;67988;60.086;30.354;2023-04-01T06:26:50;100380.38;;;0.99;71.13
78673;BME280;67988;60.086;30.354;2023-04-01T06:29:36;100389.84;;;1.22;71.00
78673;BME280;67988;60.086;30.354;2023-04-01T06:32:27;100393.53;;;1.37;70.57
78673;BME280;67988;60.086;30.354;2023-04-01T06:38:13;100387.28;;;1.02;70.85
78673;BME280;67988;60.086;30.354;2023-04-01T06:43:55;100389.53;;;1.09;70.77
78673;BME280;67988;60.086;30.354;2023-04-01T06:46:47;100383.81;;;1.01;71.10
78673;BME280;67988;60.086;30.354;2023-04-01T06:49:47;100390.28;;;1.13;70.84
78673;BME280;67988;60.086;30.354;2023-04-01T06:52:41;100400.78;;;0.93;71.36
78673;BME280;67988;60.086;30.354;2023-04-01T06:55:52;100403.84;;;1.02;71.02
78673;BME280;67988;60.086;30.354;2023-04-01T06:58:36;100398.03;;;0.96;71.40
78673;BME280;67988;60.086;30.354;2023-04-01T07:01:08;100406.59;;;0.99;71.45
78673;BME280;67988;60.086;30.354;2023-04-01T07:03:40;100399.28;;;0.87;71.26
78673;BME280;67988;60.086;30.354;2023-04-01T07:06:13;100399.91;;;0.72;72.17
78673;BME280;67988;60.086;30.354;2023-04-01T07:08:50;100391.44;;;0.87;71.68
78673;BME280;67988;60.086;30.354;2023-04-01T07:11:24;100410.81;;;1.22;71.46
78673;BME280;67988;60.086;30.354;2023-04-01T07:14:17;100411.63;;;1.24;70.88
78673;BME280;67988;60.086;30.354;2023-04-01T07:16:49;100404.41;;;1.48;70.07
78673;BME280;67988;60.086;30.354;2023-04-01T07:19:21;100412.34;;;1.65;69.76
78673;BME280;67988;60.086;30.354;2023-04-01T07:22:01;100415.53;;;1.72;69.81
78673;BME280;67988;60.086;30.354;2023-04-01T07:24:53;100411.78;;;1.96;69.27
78673;BME280;67988;60.086;30.354;2023-04-01T07:27:23;100410.19;;;2.10;69.04
78673;BME280;67988;60.086;30.354;2023-04-01T07:29:50;100416.59;;;2.05;68.93
78673;BME280;67988;60.086;30.354;2023-04-01T07:32:24;100413.25;;;2.01;68.96
78673;BME280;67988;60.086;30.354;2023-04-01T07:35:07;100425.56;;;1.63;69.60
78673;BME280;67988;60.086;30.354;2023-04-01T07:37:41;100413.69;;;1.92;69.85
78673;BME280;67988;60.086;30.354;2023-04-01T07:40:20;100402.50;;;1.70;69.18
78673;BME280;67988;60.086;30.354;2023-04-01T07:43:02;100423.31;;;1.54;69.52
78673;BME280;67988;60.086;30.354;2023-04-01T07:45:37;100429.91;;;1.44;70.27
78673;BME280;67988;60.086;30.354;2023-04-01T07:48:19;100429.91;;;1.44;69.89
78673;BME280;67988;60.086;30.354;2023-04-01T07:50:55;100433.63;;;1.20;70.36
78673;BME280;67988;60.086;30.354;2023-04-01T07:53:29;100427.84;;;1.32;70.16
78673;BME280;67988;60.086;30.354;2023-04-01T07:56:05;100428.63;;;1.34;70.47
78673;BME280;67988;60.086;30.354;2023-04-01T07:58:45;100439.00;;;1.75;69.80
78673;BME280;67988;60.086;30.354;2023-04-01T08:01:41;100436.78;;;2.22;69.21
78673;BME280;67988;60.086;30.354;2023-04-01T08:04:28;100433.13;;;2.60;67.54
78673;BME280;67988;60.086;30.354;2023-04-01T08:07:05;100426.75;;;2.30;67.86
78673;BME280;67988;60.086;30.354;2023-04-01T08:09:44;100445.59;;;1.83;68.51
78673;BME280;67988;60.086;30.354;2023-04-01T08:12:44;100441.72;;;1.73;68.81
78673;BME280;67988;60.086;30.354;2023-04-01T08:15:50;100442.69;;;1.52;69.41
78673;BME280;67988;60.086;30.354;2023-04-01T08:18:53;100452.31;;;1.51;69.62
78673;BME280;67988;60.086;30.354;2023-04-01T08:21:28;100454.94;;;1.70;69.67
78673;BME280;67988;60.086;30.354;2023-04-01T08:24:06;100455.31;;;2.00;68.97
78673;BME280;67988;60.086;30.354;2023-04-01T08:26:40;100448.13;;;2.22;68.88
78673;BME280;67988;60.086;30.354;2023-04-01T08:29:14;100444.41;;;2.45;68.19
78673;BME280;67988;60.086;30.354;2023-04-01T08:31:45;100445.84;;;2.15;68.64
78673;BME280;67988;60.086;30.354;2023-04-01T08:34:17;100451.56;;;2.41;68.11
78673;BME280;67988;60.086;30.354;2023-04-01T08:36:51;100442.72;;;2.25;68.04
78673;BME280;67988;60.086;30.354;2023-04-01T08:39:27;100448.81;;;1.90;68.73
78673;BME280;67988;60.086;30.354;2023-04-01T08:42:27;100461.63;;;1.96;68.71
78673;BME280;67988;60.086;30.354;2023-04-01T08:45:44;100435.22;;;2.18;68.38
78673;BME280;67988;60.086;30.354;2023-04-01T08:48:27;100465.19;;;2.49;68.13
78673;BME280;67988;60.086;30.354;2023-04-01T08:51:21;100468.34;;;2.56;67.19
78673;BME280;67988;60.086;30.354;2023-04-01T08:54:18;100466.66;;;2.89;67.29
78673;BME280;67988;60.086;30.354;2023-04-01T08:56:56;100469.38;;;2.88;66.89
78673;BME280;67988;60.086;30.354;2023-04-01T08:59:50;100475.94;;;2.97;66.90
78673;BME280;67988;60.086;30.354;2023-04-01T09:03:21;100447.81;;;2.81;67.05
78673;BME280;67988;60.086;30.354;2023-04-01T09:06:17;100476.81;;;2.44;67.98
78673;BME280;67988;60.086;30.354;2023-04-01T09:08:58;100485.78;;;2.02;68.79
78673;BME280;67988;60.086;30.354;2023-04-01T09:11:37;100481.63;;;1.98;69.75
78673;BME280;67988;60.086;30.354;2023-04-01T09:14:41;100487.34;;;2.25;69.15
78673;BME280;67988;60.086;30.354;2023-04-01T09:17:51;100488.63;;;1.98;69.66
78673;BME280;67988;60.086;30.354;2023-04-01T09:20:39;100480.41;;;1.87;69.25
78673;BME280;67988;60.086;30.354;2023-04-01T09:23:27;100489.97;;;1.88;69.46
78673;BME280;67988;60.086;30.354;2023-04-01T09:26:08;100491.53;;;1.92;69.34
78673;BME280;67988;60.086;30.354;2023-04-01T09:28:47;100505.59;;;1.91;69.53
78673;BME280;67988;60.086;30.354;2023-04-01T09:31:35;100488.81;;;1.75;69.82
78673;BME280;67988;60.086;30.354;2023-04-01T09:34:32;100498.56;;;1.73;70.23
78673;BME280;67988;60.086;30.354;2023-04-01T09:37:20;100504.94;;;1.86;70.75
78673;BME280;67988;60.086;30.354;2023-04-01T09:40:03;100500.78;;;2.00;70.60
78673;BME280;67988;60.086;30.354;2023-04-01T09:43:01;100496.72;;;1.93;70.92
78673;BME280;67988;60.086;30.354;2023-04-01T09:45:44;100505.50;;;1.92;71.01
78673;BME280;67988;60.086;30.354;2023-04-01T09:51:27;100503.19;;;1.47;72.02
78673;BME280;67988;60.086;30.354;2023-04-01T09:54:11;100504.13;;;1.65;72.13
78673;BME280;67988;60.086;30.354;2023-04-01T09:57:03;100503.16;;;1.67;72.03
78673;BME280;67988;60.086;30.354;2023-04-01T10:00:05;100498.78;;;1.48;72.62
78673;BME280;67988;60.086;30.354;2023-04-01T10:09:29;100512.84;;;1.65;72.29
78673;BME280;67988;60.086;30.354;2023-04-01T10:18:44;100510.78;;;2.11;71.09
78673;BME280;67988;60.086;30.354;2023-04-01T10:24:32;100511.97;;;2.04;70.70
78673;BME280;67988;60.086;30.354;2023-04-01T10:27:21;100466.44;;;1.86;69.94
78673;BME280;67988;60.086;30.354;2023-04-01T10:36:54;100521.91;;;2.71;69.83
78673;BME280;67988;60.086;30.354;2023-04-01T10:49:43;100524.22;;;2.60;70.33
78673;BME280;67988;60.086;30.354;2023-04-01T10:52:24;100524.16;;;2.78;70.27
78673;BME280;67988;60.086;30.354;2023-04-01T11:09:27;100530.78;;;3.21;70.24
78673;BME280;67988;60.086;30.354;2023-04-01T11:12:14;100536.97;;;2.84;67.22
78673;BME280;67988;60.086;30.354;2023-04-01T11:15:22;100541.72;;;2.78;67.51
78673;BME280;67988;60.086;30.354;2023-04-01T11:24:39;100540.56;;;2.83;62.84
78673;BME280;67988;60.086;30.354;2023-04-01T11:30:25;100555.16;;;2.53;62.89
78673;BME280;67988;60.086;30.354;2023-04-01T11:33:02;100544.97;;;2.28;62.45
78673;BME280;67988;60.086;30.354;2023-04-01T11:35:46;100556.94;;;2.15;61.60
78673;BME280;67988;60.086;30.354;2023-04-01T11:38:27;100556.81;;;2.56;62.37
78673;BME280;67988;60.086;30.354;2023-04-01T11:41:26;100566.84;;;3.01;61.18
78673;BME280;67988;60.086;30.354;2023-04-01T11:44:22;100563.88;;;3.25;60.98
78673;BME280;67988;60.086;30.354;2023-04-01T11:47:27;100517.69;;;3.20;60.86
78673;BME280;67988;60.086;30.354;2023-04-01T11:50:14;100566.00;;;4.02;60.83
78673;BME280;67988;60.086;30.354;2023-04-01T11:53:05;100562.03;;;4.26;59.47
78673;BME280;67988;60.086;30.354;2023-04-01T11:55:42;100558.31;;;4.14;58.67
78673;BME280;67988;60.086;30.354;2023-04-01T11:58:36;100565.38;;;4.14;58.22
78673;BME280;67988;60.086;30.354;2023-04-01T12:01:20;100562.69;;;4.47;58.46
78673;BME280;67988;60.086;30.354;2023-04-01T12:04:06;100571.78;;;4.57;57.59
78673;BME280;67988;60.086;30.354;2023-04-01T12:06:44;100559.63;;;3.90;54.23
78673;BME280;67988;60.086;30.354;2023-04-01T12:09:21;100563.69;;;3.46;54.42
78673;BME280;67988;60.086;30.354;2023-04-01T12:11:57;100570.19;;;3.56;54.20
78673;BME280;67988;60.086;30.354;2023-04-01T12:14:36;100565.72;;;3.41;53.95
78673;BME280;67988;60.086;30.354;2023-04-01T12:17:18;100562.72;;;3.31;53.35
78673;BME280;67988;60.086;30.354;2023-04-01T12:19:53;100542.75;;;3.10;53.71
78673;BME280;67988;60.086;30.354;2023-04-01T12:22:32;100584.88;;;3.08;54.22
78673;BME280;67988;60.086;30.354;2023-04-01T12:25:17;100587.44;;;3.44;53.88
78673;BME280;67988;60.086;30.354;2023-04-01T12:28:00;100577.78;;;3.62;53.44
78673;BME280;67988;60.086;30.354;2023-04-01T12:30:42;100588.75;;;3.87;52.72
78673;BME280;67988;60.086;30.354;2023-04-01T12:33:32;100569.91;;;3.95;51.95
78673;BME280;67988;60.086;30.354;2023-04-01T12:36:12;100598.75;;;3.63;52.21
78673;BME280;67988;60.086;30.354;2023-04-01T12:38:51;100586.81;;;3.73;52.39
78673;BME280;67988;60.086;30.354;2023-04-01T12:41:30;100601.94;;;4.03;52.88
78673;BME280;67988;60.086;30.354;2023-04-01T12:44:16;100605.66;;;4.47;51.71
78673;BME280;67988;60.086;30.354;2023-04-01T12:47:06;100593.19;;;4.35;51.80
78673;BME280;67988;60.086;30.354;2023-04-01T12:49:55;100605.31;;;4.05;52.34
78673;BME280;67988;60.086;30.354;2023-04-01T12:52:33;100608.25;;;4.16;52.75
78673;BME280;67988;60.086;30.354;2023-04-01T12:55:36;100604.28;;;4.25;52.11
78673;BME280;67988;60.086;30.354;2023-04-01T13:01:14;100608.81;;;4.54;50.45
78673;BME280;67988;60.086;30.354;2023-04-01T13:07:01;100603.13;;;5.38;48.27
78673;BME280;67988;60.086;30.354;2023-04-01T13:09:41;100618.50;;;5.16;47.38
78673;BME280;67988;60.086;30.354;2023-04-01T13:12:44;100616.16;;;5.26;45.67
78673;BME280;67988;60.086;30.354;2023-04-01T13:15:21;100615.81;;;5.32;44.48
78673;BME280;67988;60.086;30.354;2023-04-01T13:17:53;100620.88;;;5.21;44.30
78673;BME280;67988;60.086;30.354;2023-04-01T13:20:33;100616.03;;;5.73;44.08
78673;BME280;67988;60.086;30.354;2023-04-01T13:23:14;100607.03;;;6.62;42.60
78673;BME280;67988;60.086;30.354;2023-04-01T13:25:47;100622.22;;;7.13;41.52
78673;BME280;67988;60.086;30.354;2023-04-01T13:28:20;100623.34;;;7.09;39.96
78673;BME280;67988;60.086;30.354;2023-04-01T13:30:57;100623.16;;;7.12;39.96
78673;BME280;67988;60.086;30.354;2023-04-01T13:33:35;100624.56;;;7.18;40.04
78673;BME280;67988;60.086;30.354;2023-04-01T13:36:21;100620.69;;;7.88;37.25
78673;BME280;67988;60.086;30.354;2023-04-01T13:39:06;100638.63;;;8.10;36.91
78673;BME280;67988;60.086;30.354;2023-04-01T13:41:48;100632.03;;;8.16;35.40
78673;BME280;67988;60.086;30.354;2023-04-01T13:44:24;100633.28;;;7.97;35.49
78673;BME280;67988;60.086;30.354;2023-04-01T13:47:20;100632.59;;;7.17;36.29
78673;BME280;67988;60.086;30.354;2023-04-01T13:50:23;100642.34;;;6.61;37.29
78673;BME280;67988;60.086;30.354;2023-04-01T13:53:19;100637.88;;;5.91;38.38
78673;BME280;67988;60.086;30.354;2023-04-01T13:55:54;100654.97;;;5.69;39.18
78673;BME280;67988;60.086;30.354;2023-04-01T13:58:49;100646.84;;;6.02;37.61
78673;BME280;67988;60.086;30.354;2023-04-01T14:01:25;100655.84;;;6.14;36.82
78673;BME280;67988;60.086;30.354;2023-04-01T14:04:20;100651.81;;;6.37;36.13
78673;BME280;67988;60.086;30.354;2023-04-01T14:07:00;100659.91;;;6.34;36.18
78673;BME280;67988;60.086;30.354;2023-04-01T14:09:56;100660.75;;;6.34;35.33
78673;BME280;67988;60.086;30.354;2023-04-01T14:12:30;100666.13;;;6.75;35.98
78673;BME280;67988;60.086;30.354;2023-04-01T14:15:15;100661.72;;;6.47;35.78
78673;BME280;67988;60.086;30.354;2023-04-01T14:17:56;100672.53;;;6.28;36.04
78673;BME280;67988;60.086;30.354;2023-04-01T14:20:36;100667.94;;;5.58;37.44
78673;BME280;67988;60.086;30.354;2023-04-01T14:23:33;100684.75;;;5.41;37.83
78673;BME280;67988;60.086;30.354;2023-04-01T14:26:07;100681.31;;;5.55;38.65
78673;BME280;67988;60.086;30.354;2023-04-01T14:28:47;100683.25;;;5.52;38.43
78673;BME280;67988;60.086;30.354;2023-04-01T14:31:43;100686.25;;;5.45;38.98
78673;BME280;67988;60.086;30.354;2023-04-01T14:34:21;100683.16;;;5.23;39.32
78673;BME280;67988;60.086;30.354;2023-04-01T14:37:01;100690.72;;;5.14;39.76
78673;BME280;67988;60.086;30.354;2023-04-01T14:43:07;100688.97;;;4.50;40.42
78673;BME280;67988;60.086;30.354;2023-04-01T14:45:46;100694.13;;;4.36;41.52
78673;BME280;67988;60.086;30.354;2023-04-01T14:48:25;100691.66;;;4.48;41.98
78673;BME280;67988;60.086;30.354;2023-04-01T14:50:57;100705.84;;;4.63;42.00
78673;BME280;67988;60.086;30.354;2023-04-01T14:53:31;100703.69;;;4.70;42.08
78673;BME280;67988;60.086;30.354;2023-04-01T14:56:04;100693.69;;;4.43;42.70
78673;BME280;67988;60.086;30.354;2023-04-01T14:58:43;100711.78;;;4.34;42.88
78673;BME280;67988;60.086;30.354;2023-04-01T15:01:34;100722.69;;;4.43;43.04